^^
Station Historical Data
Daily Summary for October 18, 2017 Units:  Metric    English   Both
« Previous Day
Next Day »
Daily Weekly Monthly Yearly Custom
  High: Low: Average:
Temperature: 33.4 °C 11.1 °C 19.2 °C
Dew Point: 3.4 °C -14.3 °C -4.6 °C
Humidity: 33% 4% 23%
Wind Speed: 33.8km/h 0km/h 10.6km/h
Wind Gust: 41.8km/h - -
Wind- - SW
Pressure: 1013.1 hPa 1004.6 hPa -
Precipitation: 0 mm    
Historical Graphs
 
 
Tabular Data for October 18, 2017
Time Temperature Dew Point Pressure Wind Wind Speed Wind Gust Humidity Rainfall Rate (Hourly) solar Conditions
01:53 13 °C -4.2 °C 1013.1 hPa Calm     30% 0 mm 0.0 W/m2
01:58 12.8 °C -3.9 °C 1013.1 hPa Calm     31% 0 mm 0.0 W/m2
02:03 12.7 °C -4 °C 1013.1 hPa Calm     31% 0 mm 0.0 W/m2
02:08 12.6 °C -4.5 °C 1013.1 hPa Calm     30% 0 mm 0.0 W/m2
02:14 12.4 °C -4.3 °C 1013.1 hPa Calm     31% 0 mm 0.0 W/m2
02:19 12.4 °C -3.8 °C 1013.1 hPa Calm     32% 0 mm 0.0 W/m2
02:24 12.3 °C -3.9 °C 1013.1 hPa Calm     32% 0 mm 0.0 W/m2
02:29 12.3 °C -3.9 °C 1012.8 hPa Calm     32% 0 mm 0.0 W/m2
02:35 12.1 °C -4.1 °C 1012.8 hPa Calm     32% 0 mm 0.0 W/m2
02:40 12.1 °C -4.1 °C 1012.8 hPa Calm     32% 0 mm 0.0 W/m2
02:50 11.9 °C -4.3 °C 1012.8 hPa Calm     32% 0 mm 0.0 W/m2
02:55 11.9 °C -4.3 °C 1012.8 hPa Calm     32% 0 mm 0.0 W/m2
03:00 11.9 °C -3.9 °C 1012.8 hPa Calm     33% 0 mm 0.0 W/m2
03:05 11.8 °C -4.4 °C 1012.8 hPa Calm     32% 0 mm 0.0 W/m2
03:10 11.7 °C -4 °C 1012.8 hPa Calm     33% 0 mm 0.0 W/m2
03:16 11.6 °C -4.5 °C 1012.8 hPa Calm     32% 0 mm 0.0 W/m2
03:21 11.6 °C -5 °C 1012.8 hPa Calm     31% 0 mm 0.0 W/m2
03:26 11.6 °C -5.4 °C 1012.8 hPa Calm     30% 0 mm 0.0 W/m2
03:31 11.7 °C -5.3 °C 1012.8 hPa Calm     30% 0 mm 0.0 W/m2
03:36 11.7 °C -5.8 °C 1012.8 hPa Calm     29% 0 mm 0.0 W/m2
03:41 11.6 °C -5.8 °C 1012.8 hPa Calm     29% 0 mm 0.0 W/m2
03:47 11.3 °C -6.1 °C 1012.4 hPa Calm     29% 0 mm 0.0 W/m2
04:03 11.1 °C -5.8 °C 1012.4 hPa Calm     30% 0 mm 0.0 W/m2
04:19 11.4 °C -6 °C 1012.4 hPa Calm     29% 0 mm 0.0 W/m2
04:29 11.6 °C -5.8 °C 1012.4 hPa Calm     29% 0 mm 0.0 W/m2
04:34 11.8 °C -5.7 °C 1012.4 hPa Calm     29% 0 mm 0.0 W/m2
04:39 12.1 °C -5.4 °C 1012.4 hPa Calm     29% 0 mm 0.0 W/m2
04:45 12.2 °C -5.8 °C 1012.1 hPa Calm     28% 0 mm 0.0 W/m2
04:50 12.2 °C -5.8 °C 1012.1 hPa Calm     28% 0 mm 0.0 W/m2
04:55 12.2 °C -5.8 °C 1012.1 hPa Calm     28% 0 mm 0.0 W/m2
05:01 12.1 °C -5.9 °C 1012.1 hPa Calm     28% 0 mm 0.0 W/m2
05:06 11.9 °C -6 °C 1012.1 hPa Calm     28% 0 mm 0.0 W/m2
05:11 11.9 °C -5.6 °C 1012.1 hPa Calm     29% 0 mm 0.0 W/m2
05:16 12 °C -5.5 °C 1012.1 hPa Calm     29% 0 mm 0.0 W/m2
05:42 12.9 °C -5.2 °C 1012.1 hPa Calm     28% 0 mm 0.0 W/m2
05:47 12.9 °C -5.2 °C 1012.1 hPa Calm     28% 0 mm 0.0 W/m2
05:52 12.9 °C -5.2 °C 1012.4 hPa Calm     28% 0 mm 0.0 W/m2
05:57 12.8 °C -5.3 °C 1012.1 hPa Calm     28% 0 mm 0.0 W/m2
06:03 12.8 °C -5.3 °C 1012.4 hPa Calm     28% 0 mm 0.0 W/m2
06:07 12.6 °C -5.4 °C 1012.4 hPa Calm     28% 0 mm 0.0 W/m2
06:13 12.5 °C -5.5 °C 1012.4 hPa Calm     28% 0 mm 5.0 W/m2
06:18 12.4 °C -5.6 °C 1012.4 hPa Calm     28% 0 mm 7.0 W/m2
06:23 12.3 °C -5.2 °C 1012.4 hPa Calm     29% 0 mm 11.0 W/m2
06:34 12.7 °C -4.9 °C 1012.4 hPa Calm     29% 0 mm 21.0 W/m2
06:55 13.7 °C -5 °C 1012.4 hPa Calm     27% 0 mm 84.0 W/m2
07:01 13.8 °C -4.9 °C 1012.4 hPa Calm     27% 0 mm 104.0 W/m2
07:08 13.9 °C -4.8 °C 1012.8 hPa Calm     27% 0 mm 125.0 W/m2
07:15 14.3 °C -4.5 °C 1012.8 hPa Calm     27% 0 mm 171.0 W/m2
07:35 15.9 °C -3.6 °C 1012.8 hPa SSW 7.9 km/h 12.9 km/h 26% 0 mm 246.0 W/m2
07:45 16.6 °C -3.5 °C 1012.4 hPa West 13 km/h 19.3 km/h 25% 0 mm 301.0 W/m2
08:06 16.9 °C -3.3 °C 1012.8 hPa NW 20.9 km/h 24.1 km/h 25% 0 mm 352.0 W/m2
08:15 17.8 °C -3 °C 1012.8 hPa North 14.3 km/h 29 km/h 24% 0 mm 401.0 W/m2
08:30 18.3 °C -3.2 °C 1012.8 hPa NNW 22.7 km/h 27.4 km/h 23% 0 mm 459.0 W/m2
08:45 18.8 °C -3.4 °C 1012.8 hPa North 20.9 km/h 25.7 km/h 22% 0 mm 508.0 W/m2
08:55 19.3 °C -3 °C 1012.8 hPa North 14.3 km/h 29 km/h 22% 0 mm 536.0 W/m2
09:15 20.3 °C -3.4 °C 1012.4 hPa North 22.7 km/h 33.8 km/h 20% 0 mm 585.0 W/m2
09:25 20.9 °C -3.6 °C 1012.4 hPa North 13 km/h 29 km/h 19% 0 mm 631.0 W/m2
09:40 21.7 °C -2.9 °C 1012.1 hPa North 14.3 km/h 29 km/h 19% 0 mm 679.0 W/m2
10:00 21.8 °C -3.6 °C 1011.7 hPa NNE 7.9 km/h 24.1 km/h 18% 0 mm 719.0 W/m2
10:10 22.8 °C -3.5 °C 1011.7 hPa North 11.1 km/h 30.6 km/h 17% 0 mm 742.0 W/m2
10:21 23.7 °C -3.6 °C 1011.4 hPa NNW 14.3 km/h 33.8 km/h 16% 0 mm 772.0 W/m2
10:51 24.5 °C -4.8 °C 1011.4 hPa North 13 km/h 32.2 km/h 14% 0 mm 833.0 W/m2
11:01 24.9 °C -4.4 °C 1011.1 hPa NNW 17.7 km/h 30.6 km/h 14% 0 mm 863.0 W/m2
11:21 25.1 °C -4.3 °C 1011.1 hPa North 9.7 km/h 22.5 km/h 14% 0 mm 884.0 W/m2
11:36 25.9 °C -4.6 °C 1010.4 hPa North 17.7 km/h 32.2 km/h 13% 0 mm 904.0 W/m2
11:46 26.3 °C -4.3 °C 1010 hPa NNW 20.9 km/h 29 km/h 13% 0 mm 918.0 W/m2
12:07 27 °C -4.8 °C 1010 hPa ENE 9.7 km/h 24.1 km/h 12% 0 mm 928.0 W/m2
12:16 28.4 °C -4.9 °C 1009.4 hPa North 28.8 km/h 29 km/h 11% 0 mm 939.0 W/m2
12:36 29.1 °C -7 °C 1009 hPa NW 19.5 km/h 24.1 km/h 9% 0 mm 946.0 W/m2
12:53 29.4 °C -8.3 °C 1008.7 hPa NW 19.5 km/h 29 km/h 8% 0 mm 940.0 W/m2
13:08 29.9 °C -7.9 °C 1008.4 hPa NNE 16.3 km/h 27.4 km/h 8% 0 mm 935.0 W/m2
13:21 30.2 °C -9.4 °C 1008 hPa NNW 11.1 km/h 30.6 km/h 7% 0 mm 928.0 W/m2
13:27 30.7 °C -9.1 °C 1008 hPa North 17.7 km/h 24.1 km/h 7% 0 mm 919.0 W/m2
13:42 31.1 °C -10.7 °C 1007.3 hPa NW 19.5 km/h 24.1 km/h 6% 0 mm 900.0 W/m2
14:03 31.6 °C -10.4 °C 1007 hPa North 13 km/h 17.7 km/h 6% 0 mm 882.0 W/m2
14:12 32.1 °C -12.3 °C 1007 hPa NW 11.1 km/h 22.5 km/h 5% 0 mm 854.0 W/m2
14:27 32.2 °C -12.2 °C 1006.7 hPa West 16.3 km/h 17.7 km/h 5% 0 mm 826.0 W/m2
14:42 32.3 °C -12.1 °C 1006.3 hPa West 16.3 km/h 22.5 km/h 5% 0 mm 795.0 W/m2
15:03 32.9 °C -11.7 °C 1006 hPa West 16.3 km/h 16.3 km/h 5% 0 mm 761.0 W/m2
15:13 33.1 °C -14.3 °C 1005.6 hPa Calm     4% 0 mm 719.0 W/m2
15:28 33.3 °C -14.2 °C 1005.3 hPa WNW 20.9 km/h 24.1 km/h 4% 0 mm 680.0 W/m2
15:43 33.2 °C -14.3 °C 1005 hPa WNW 19.5 km/h 22.5 km/h 4% 0 mm 629.0 W/m2
15:58 33.4 °C -14.1 °C 1004.6 hPa West 16.3 km/h 25.7 km/h 4% 0 mm 582.0 W/m2
16:18 31.9 °C -4.9 °C 1005 hPa SSW 20.9 km/h 35.4 km/h 9% 0 mm 522.0 W/m2
16:34 30.9 °C -3 °C 1005 hPa SSW 27.4 km/h 41.8 km/h 11% 0 mm 475.0 W/m2
16:43 30.1 °C -0.3 °C 1005.3 hPa SW 24.1 km/h 33.8 km/h 14% 0 mm 420.0 W/m2
17:04 29 °C 1.5 °C 1005.6 hPa SSW 27.4 km/h 33.8 km/h 17% 0 mm 367.0 W/m2
17:13 28.5 °C 1.1 °C 1005.6 hPa SSW 30.6 km/h 30.6 km/h 17% 0 mm 311.0 W/m2
17:28 28 °C 2.2 °C 1005.6 hPa SSW 27.4 km/h 33.8 km/h 19% 0 mm 258.0 W/m2
17:48 27.2 °C 3 °C 1006 hPa SSW 25.9 km/h 30.6 km/h 21% 0 mm 202.0 W/m2
18:03 25.5 °C 3.4 °C 1006.3 hPa South 30.6 km/h 33.8 km/h 24% 0 mm 141.0 W/m2
18:12 24.8 °C 2.9 °C 1006.3 hPa SSW 27.4 km/h 35.4 km/h 24% 0 mm 100.0 W/m2
18:23 24.3 °C 3 °C 1006.7 hPa SSW 20.9 km/h 35.4 km/h 25% 0 mm 60.0 W/m2
18:34 23.9 °C 3.2 °C 1007 hPa SW 24.1 km/h 33.8 km/h 26% 0 mm 40.0 W/m2
19:04 22 °C 2.6 °C 1007.7 hPa SSW 30.6 km/h 35.4 km/h 28% 0 mm 5.0 W/m2
19:19 21.1 °C 2.4 °C 1008 hPa SSW 27.4 km/h 35.4 km/h 29% 0 mm 0.0 W/m2
19:29 20.6 °C 1.9 °C 1008.4 hPa SSW 17.7 km/h 33.8 km/h 29% 0 mm 0.0 W/m2
19:44 19.7 °C 1.2 °C 1008.7 hPa SSW 24.1 km/h 27.4 km/h 29% 0 mm 0.0 W/m2
20:04 19.2 °C -0.3 °C 1009.4 hPa SSW 32 km/h 38.6 km/h 27% 0 mm 0.0 W/m2
20:14 18.7 °C -0.2 °C 1009.4 hPa SSW 33.8 km/h 35.4 km/h 28% 0 mm 0.0 W/m2
21:01 17.3 °C -1.4 °C 1010.7 hPa SSW 24.1 km/h 33.8 km/h 28% 0 mm 0.0 W/m2
21:16 17.1 °C -1.6 °C 1011.1 hPa SSW 27.4 km/h 35.4 km/h 28% 0 mm 0.0 W/m2
21:44 16.2 °C -2.8 °C 1011.7 hPa SSW 19.5 km/h 33.8 km/h 27% 0 mm 0.0 W/m2
21:51 15.9 °C -4.1 °C 1012.1 hPa SSW 32 km/h 40.2 km/h 25% 0 mm 0.0 W/m2
Canyon Roadhouse, Fishriver Canyon, Namibia
Compliments of Weather Underground - 2.25 mb